sensor_id;sensor_type;location;lat;lon;timestamp;temperature;humidity
20102;DHT22;10210;52.284;9.892;2022-12-13T00:01:33;-1.50;99.90
20102;DHT22;10210;52.284;9.892;2022-12-13T00:04:01;-1.50;99.90
20102;DHT22;10210;52.284;9.892;2022-12-13T00:06:29;-1.50;99.90
20102;DHT22;10210;52.284;9.892;2022-12-13T00:08:57;-1.50;99.90
20102;DHT22;10210;52.284;9.892;2022-12-13T00:11:23;-1.50;99.90
20102;DHT22;10210;52.284;9.892;2022-12-13T00:13:50;-1.50;99.90
20102;DHT22;10210;52.284;9.892;2022-12-13T00:16:18;-1.50;99.90
20102;DHT22;10210;52.284;9.892;2022-12-13T00:18:51;-1.50;99.90
20102;DHT22;10210;52.284;9.892;2022-12-13T00:21:21;-1.50;99.90
20102;DHT22;10210;52.284;9.892;2022-12-13T00:23:49;-1.50;99.90
20102;DHT22;10210;52.284;9.892;2022-12-13T00:26:18;-1.50;99.90
20102;DHT22;10210;52.284;9.892;2022-12-13T00:28:45;-1.50;99.90
20102;DHT22;10210;52.284;9.892;2022-12-13T00:31:14;-1.60;99.90
20102;DHT22;10210;52.284;9.892;2022-12-13T00:33:40;-1.60;99.90
20102;DHT22;10210;52.284;9.892;2022-12-13T00:36:07;-1.60;99.90
20102;DHT22;10210;52.284;9.892;2022-12-13T00:38:34;-1.60;99.90
20102;DHT22;10210;52.284;9.892;2022-12-13T00:41:20;-1.60;99.90
20102;DHT22;10210;52.284;9.892;2022-12-13T00:43:46;-1.60;99.90
20102;DHT22;10210;52.284;9.892;2022-12-13T00:46:13;-1.60;99.90
20102;DHT22;10210;52.284;9.892;2022-12-13T00:48:42;-1.60;99.90
20102;DHT22;10210;52.284;9.892;2022-12-13T00:51:10;-1.60;99.90
20102;DHT22;10210;52.284;9.892;2022-12-13T00:53:37;-1.70;99.90
20102;DHT22;10210;52.284;9.892;2022-12-13T00:56:03;-1.70;99.90
20102;DHT22;10210;52.284;9.892;2022-12-13T00:58:34;-1.70;99.90
20102;DHT22;10210;52.284;9.892;2022-12-13T01:01:04;-1.80;99.90
20102;DHT22;10210;52.284;9.892;2022-12-13T01:03:31;-1.80;99.90
20102;DHT22;10210;52.284;9.892;2022-12-13T01:05:57;-1.80;99.90
20102;DHT22;10210;52.284;9.892;2022-12-13T01:08:24;-1.90;99.90
20102;DHT22;10210;52.284;9.892;2022-12-13T01:10:52;-1.90;99.90
20102;DHT22;10210;52.284;9.892;2022-12-13T01:13:18;-1.90;99.90
20102;DHT22;10210;52.284;9.892;2022-12-13T01:15:45;-1.90;99.90
20102;DHT22;10210;52.284;9.892;2022-12-13T01:18:13;-1.90;99.90
20102;DHT22;10210;52.284;9.892;2022-12-13T01:20:43;-1.90;99.90
20102;DHT22;10210;52.284;9.892;2022-12-13T01:23:22;-1.90;99.90
20102;DHT22;10210;52.284;9.892;2022-12-13T01:25:48;-2.00;99.90
20102;DHT22;10210;52.284;9.892;2022-12-13T01:28:14;-2.00;99.90
20102;DHT22;10210;52.284;9.892;2022-12-13T01:30:39;-2.00;99.90
20102;DHT22;10210;52.284;9.892;2022-12-13T01:33:05;-2.00;99.90
20102;DHT22;10210;52.284;9.892;2022-12-13T01:35:33;-2.00;99.90
20102;DHT22;10210;52.284;9.892;2022-12-13T01:37:59;-2.00;99.90
20102;DHT22;10210;52.284;9.892;2022-12-13T01:40:26;-2.00;99.90
20102;DHT22;10210;52.284;9.892;2022-12-13T01:42:52;-2.00;99.90
20102;DHT22;10210;52.284;9.892;2022-12-13T01:47:45;-2.00;99.90
20102;DHT22;10210;52.284;9.892;2022-12-13T01:50:28;-2.00;99.90
20102;DHT22;10210;52.284;9.892;2022-12-13T01:52:57;-2.10;99.90
20102;DHT22;10210;52.284;9.892;2022-12-13T01:55:27;-2.10;99.90
20102;DHT22;10210;52.284;9.892;2022-12-13T01:57:59;-2.00;99.90
20102;DHT22;10210;52.284;9.892;2022-12-13T02:00:26;-2.00;99.90
20102;DHT22;10210;52.284;9.892;2022-12-13T02:02:55;-2.00;99.90
20102;DHT22;10210;52.284;9.892;2022-12-13T02:05:36;-2.00;99.90
20102;DHT22;10210;52.284;9.892;2022-12-13T02:08:07;-2.10;99.90
20102;DHT22;10210;52.284;9.892;2022-12-13T02:10:36;-2.10;99.90
20102;DHT22;10210;52.284;9.892;2022-12-13T02:13:03;-2.10;99.90
20102;DHT22;10210;52.284;9.892;2022-12-13T02:15:44;-2.10;99.90
20102;DHT22;10210;52.284;9.892;2022-12-13T02:21:18;-2.00;99.90
20102;DHT22;10210;52.284;9.892;2022-12-13T02:24:25;-2.00;99.90
20102;DHT22;10210;52.284;9.892;2022-12-13T02:27:47;-2.00;99.90
20102;DHT22;10210;52.284;9.892;2022-12-13T02:30:36;-2.00;99.90
20102;DHT22;10210;52.284;9.892;2022-12-13T02:38:54;-2.00;99.90
20102;DHT22;10210;52.284;9.892;2022-12-13T02:44:08;-2.10;99.90
20102;DHT22;10210;52.284;9.892;2022-12-13T02:46:42;-2.10;99.90
20102;DHT22;10210;52.284;9.892;2022-12-13T02:49:14;-2.10;99.90
20102;DHT22;10210;52.284;9.892;2022-12-13T02:51:42;-2.10;99.90
20102;DHT22;10210;52.284;9.892;2022-12-13T02:54:08;-2.10;99.90
20102;DHT22;10210;52.284;9.892;2022-12-13T02:56:34;-2.10;99.90
20102;DHT22;10210;52.284;9.892;2022-12-13T02:59:02;-2.10;99.90
20102;DHT22;10210;52.284;9.892;2022-12-13T03:01:44;-2.10;99.90
20102;DHT22;10210;52.284;9.892;2022-12-13T03:04:29;-2.10;99.90
20102;DHT22;10210;52.284;9.892;2022-12-13T03:08:06;-2.10;99.90
20102;DHT22;10210;52.284;9.892;2022-12-13T03:13:26;-2.20;99.90
20102;DHT22;10210;52.284;9.892;2022-12-13T03:18:37;-2.20;99.90
20102;DHT22;10210;52.284;9.892;2022-12-13T03:21:06;-2.20;99.90
20102;DHT22;10210;52.284;9.892;2022-12-13T03:23:34;-2.20;99.90
20102;DHT22;10210;52.284;9.892;2022-12-13T03:26:09;-2.20;99.90
20102;DHT22;10210;52.284;9.892;2022-12-13T03:28:38;-2.20;99.90
20102;DHT22;10210;52.284;9.892;2022-12-13T03:31:04;-2.20;99.90
20102;DHT22;10210;52.284;9.892;2022-12-13T03:33:30;-2.20;99.90
20102;DHT22;10210;52.284;9.892;2022-12-13T03:35:57;-2.20;99.90
20102;DHT22;10210;52.284;9.892;2022-12-13T03:38:24;-2.20;99.90
20102;DHT22;10210;52.284;9.892;2022-12-13T03:40:56;-2.20;99.90
20102;DHT22;10210;52.284;9.892;2022-12-13T03:43:25;-2.20;99.90
20102;DHT22;10210;52.284;9.892;2022-12-13T03:45:52;-2.30;99.90
20102;DHT22;10210;52.284;9.892;2022-12-13T03:48:19;-2.30;99.90
20102;DHT22;10210;52.284;9.892;2022-12-13T03:50:46;-2.20;99.90
20102;DHT22;10210;52.284;9.892;2022-12-13T03:53:12;-2.20;99.90
20102;DHT22;10210;52.284;9.892;2022-12-13T03:55:38;-2.20;99.90
20102;DHT22;10210;52.284;9.892;2022-12-13T03:58:04;-2.20;99.90
20102;DHT22;10210;52.284;9.892;2022-12-13T04:00:29;-2.20;99.90
20102;DHT22;10210;52.284;9.892;2022-12-13T04:02:55;-2.20;99.90
20102;DHT22;10210;52.284;9.892;2022-12-13T04:05:21;-2.20;99.90
20102;DHT22;10210;52.284;9.892;2022-12-13T04:07:47;-2.20;99.90
20102;DHT22;10210;52.284;9.892;2022-12-13T04:10:12;-2.20;99.90
20102;DHT22;10210;52.284;9.892;2022-12-13T04:12:38;-2.20;99.90
20102;DHT22;10210;52.284;9.892;2022-12-13T04:15:22;-2.20;99.90
20102;DHT22;10210;52.284;9.892;2022-12-13T04:17:48;-2.20;99.90
20102;DHT22;10210;52.284;9.892;2022-12-13T04:20:14;-2.20;99.90
20102;DHT22;10210;52.284;9.892;2022-12-13T04:22:40;-2.20;99.90
20102;DHT22;10210;52.284;9.892;2022-12-13T04:25:06;-2.20;99.90
20102;DHT22;10210;52.284;9.892;2022-12-13T04:27:32;-2.30;99.90
20102;DHT22;10210;52.284;9.892;2022-12-13T04:29:58;-2.30;99.90
20102;DHT22;10210;52.284;9.892;2022-12-13T04:32:23;-2.30;99.90
20102;DHT22;10210;52.284;9.892;2022-12-13T04:34:49;-2.20;99.90
20102;DHT22;10210;52.284;9.892;2022-12-13T04:37:15;-2.30;99.90
20102;DHT22;10210;52.284;9.892;2022-12-13T04:39:41;-2.30;99.90
20102;DHT22;10210;52.284;9.892;2022-12-13T04:42:06;-2.30;99.90
20102;DHT22;10210;52.284;9.892;2022-12-13T04:44:32;-2.30;99.90
20102;DHT22;10210;52.284;9.892;2022-12-13T04:46:58;-2.30;99.90
20102;DHT22;10210;52.284;9.892;2022-12-13T04:49:23;-2.30;99.90
20102;DHT22;10210;52.284;9.892;2022-12-13T04:51:49;-2.30;99.90
20102;DHT22;10210;52.284;9.892;2022-12-13T04:54:15;-2.30;99.90
20102;DHT22;10210;52.284;9.892;2022-12-13T04:56:40;-2.30;99.90
20102;DHT22;10210;52.284;9.892;2022-12-13T04:59:06;-2.30;99.90
20102;DHT22;10210;52.284;9.892;2022-12-13T05:01:33;-2.30;99.90
20102;DHT22;10210;52.284;9.892;2022-12-13T05:04:00;-2.30;99.90
20102;DHT22;10210;52.284;9.892;2022-12-13T05:06:27;-2.30;99.90
20102;DHT22;10210;52.284;9.892;2022-12-13T05:08:53;-2.40;99.90
20102;DHT22;10210;52.284;9.892;2022-12-13T05:11:20;-2.40;99.90
20102;DHT22;10210;52.284;9.892;2022-12-13T05:13:46;-2.40;99.90
20102;DHT22;10210;52.284;9.892;2022-12-13T05:16:11;-2.40;99.90
20102;DHT22;10210;52.284;9.892;2022-12-13T05:18:37;-2.40;99.90
20102;DHT22;10210;52.284;9.892;2022-12-13T05:21:04;-2.40;99.90
20102;DHT22;10210;52.284;9.892;2022-12-13T05:23:32;-2.50;99.90
20102;DHT22;10210;52.284;9.892;2022-12-13T05:25:59;-2.50;99.90
20102;DHT22;10210;52.284;9.892;2022-12-13T05:28:25;-2.40;99.90
20102;DHT22;10210;52.284;9.892;2022-12-13T05:30:54;-2.50;99.90
20102;DHT22;10210;52.284;9.892;2022-12-13T05:33:22;-2.50;99.90
20102;DHT22;10210;52.284;9.892;2022-12-13T05:35:49;-2.50;99.90
20102;DHT22;10210;52.284;9.892;2022-12-13T05:38:14;-2.50;99.90
20102;DHT22;10210;52.284;9.892;2022-12-13T05:40:40;-2.50;99.90
20102;DHT22;10210;52.284;9.892;2022-12-13T05:43:06;-2.50;99.90
20102;DHT22;10210;52.284;9.892;2022-12-13T05:45:33;-2.50;99.90
20102;DHT22;10210;52.284;9.892;2022-12-13T05:47:59;-2.60;99.90
20102;DHT22;10210;52.284;9.892;2022-12-13T05:50:24;-2.60;99.90
20102;DHT22;10210;52.284;9.892;2022-12-13T05:52:50;-2.60;99.90
20102;DHT22;10210;52.284;9.892;2022-12-13T05:55:16;-2.60;99.90
20102;DHT22;10210;52.284;9.892;2022-12-13T05:57:42;-2.60;99.90
20102;DHT22;10210;52.284;9.892;2022-12-13T06:00:09;-2.60;99.90
20102;DHT22;10210;52.284;9.892;2022-12-13T06:02:40;-2.60;99.90
20102;DHT22;10210;52.284;9.892;2022-12-13T06:05:08;-2.60;99.90
20102;DHT22;10210;52.284;9.892;2022-12-13T06:07:35;-2.60;99.90
20102;DHT22;10210;52.284;9.892;2022-12-13T06:10:02;-2.60;99.90
20102;DHT22;10210;52.284;9.892;2022-12-13T06:12:28;-2.60;99.90
20102;DHT22;10210;52.284;9.892;2022-12-13T06:14:54;-2.70;99.90
20102;DHT22;10210;52.284;9.892;2022-12-13T06:17:20;-2.70;99.90
20102;DHT22;10210;52.284;9.892;2022-12-13T06:19:49;-2.70;99.90
20102;DHT22;10210;52.284;9.892;2022-12-13T06:22:16;-2.70;99.90
20102;DHT22;10210;52.284;9.892;2022-12-13T06:24:42;-2.70;99.90
20102;DHT22;10210;52.284;9.892;2022-12-13T06:27:08;-2.70;99.90
20102;DHT22;10210;52.284;9.892;2022-12-13T06:29:34;-2.70;99.90
20102;DHT22;10210;52.284;9.892;2022-12-13T06:32:01;-2.70;99.90
20102;DHT22;10210;52.284;9.892;2022-12-13T06:34:28;-2.70;99.90
20102;DHT22;10210;52.284;9.892;2022-12-13T06:36:54;-2.60;99.90
20102;DHT22;10210;52.284;9.892;2022-12-13T06:39:20;-2.60;99.90
20102;DHT22;10210;52.284;9.892;2022-12-13T06:41:46;-2.60;99.90
20102;DHT22;10210;52.284;9.892;2022-12-13T06:44:12;-2.60;99.90
20102;DHT22;10210;52.284;9.892;2022-12-13T06:46:37;-2.50;99.90
20102;DHT22;10210;52.284;9.892;2022-12-13T06:49:03;-2.50;99.90
20102;DHT22;10210;52.284;9.892;2022-12-13T06:51:29;-2.50;99.90
20102;DHT22;10210;52.284;9.892;2022-12-13T06:53:56;-2.50;99.90
20102;DHT22;10210;52.284;9.892;2022-12-13T06:56:22;-2.50;99.90
20102;DHT22;10210;52.284;9.892;2022-12-13T06:58:48;-2.50;99.90
20102;DHT22;10210;52.284;9.892;2022-12-13T07:01:16;-2.40;99.90
20102;DHT22;10210;52.284;9.892;2022-12-13T07:03:43;-2.50;99.90
20102;DHT22;10210;52.284;9.892;2022-12-13T07:06:15;-2.40;99.90
20102;DHT22;10210;52.284;9.892;2022-12-13T07:08:46;-2.40;99.90
20102;DHT22;10210;52.284;9.892;2022-12-13T07:11:15;-2.40;99.90
20102;DHT22;10210;52.284;9.892;2022-12-13T07:13:42;-2.40;99.90
20102;DHT22;10210;52.284;9.892;2022-12-13T07:16:08;-2.40;99.90
20102;DHT22;10210;52.284;9.892;2022-12-13T07:18:34;-2.40;99.90
20102;DHT22;10210;52.284;9.892;2022-12-13T07:21:03;-2.40;99.90
20102;DHT22;10210;52.284;9.892;2022-12-13T07:23:30;-2.40;99.90
20102;DHT22;10210;52.284;9.892;2022-12-13T07:25:56;-2.40;99.90
20102;DHT22;10210;52.284;9.892;2022-12-13T07:28:22;-2.30;99.90
20102;DHT22;10210;52.284;9.892;2022-12-13T07:30:48;-2.40;99.90
20102;DHT22;10210;52.284;9.892;2022-12-13T07:33:14;-2.30;99.90
20102;DHT22;10210;52.284;9.892;2022-12-13T07:35:40;-2.40;99.90
20102;DHT22;10210;52.284;9.892;2022-12-13T07:38:06;-2.30;99.90
20102;DHT22;10210;52.284;9.892;2022-12-13T07:40:35;-2.30;99.90
20102;DHT22;10210;52.284;9.892;2022-12-13T07:43:02;-2.30;99.90
20102;DHT22;10210;52.284;9.892;2022-12-13T07:45:28;-2.30;99.90
20102;DHT22;10210;52.284;9.892;2022-12-13T07:47:54;-2.40;99.90
20102;DHT22;10210;52.284;9.892;2022-12-13T07:50:20;-2.30;99.90
20102;DHT22;10210;52.284;9.892;2022-12-13T07:52:50;-2.30;99.90
20102;DHT22;10210;52.284;9.892;2022-12-13T07:55:16;-2.40;99.90
20102;DHT22;10210;52.284;9.892;2022-12-13T07:57:46;-2.40;99.90
20102;DHT22;10210;52.284;9.892;2022-12-13T08:00:12;-2.30;99.90
20102;DHT22;10210;52.284;9.892;2022-12-13T08:02:39;-2.30;99.90
20102;DHT22;10210;52.284;9.892;2022-12-13T08:05:06;-2.30;99.90
20102;DHT22;10210;52.284;9.892;2022-12-13T08:07:32;-2.30;99.90
20102;DHT22;10210;52.284;9.892;2022-12-13T08:09:58;-2.30;99.90
20102;DHT22;10210;52.284;9.892;2022-12-13T08:12:23;-2.30;99.90
20102;DHT22;10210;52.284;9.892;2022-12-13T08:14:49;-2.30;99.90
20102;DHT22;10210;52.284;9.892;2022-12-13T08:17:15;-2.30;99.90
20102;DHT22;10210;52.284;9.892;2022-12-13T08:19:41;-2.30;99.90
20102;DHT22;10210;52.284;9.892;2022-12-13T08:22:11;-2.30;99.90
20102;DHT22;10210;52.284;9.892;2022-12-13T08:25:04;-2.30;99.90
20102;DHT22;10210;52.284;9.892;2022-12-13T08:27:31;-2.30;99.90
20102;DHT22;10210;52.284;9.892;2022-12-13T08:29:57;-2.30;99.90
20102;DHT22;10210;52.284;9.892;2022-12-13T08:32:26;-2.20;99.90
20102;DHT22;10210;52.284;9.892;2022-12-13T08:34:51;-2.20;99.90
20102;DHT22;10210;52.284;9.892;2022-12-13T08:37:17;-2.20;99.90
20102;DHT22;10210;52.284;9.892;2022-12-13T08:39:43;-2.30;99.90
20102;DHT22;10210;52.284;9.892;2022-12-13T08:42:14;-2.30;99.90
20102;DHT22;10210;52.284;9.892;2022-12-13T08:44:41;-2.30;99.90
20102;DHT22;10210;52.284;9.892;2022-12-13T08:47:10;-2.30;99.90
20102;DHT22;10210;52.284;9.892;2022-12-13T08:49:36;-2.30;99.90
20102;DHT22;10210;52.284;9.892;2022-12-13T08:52:02;-2.30;99.90
20102;DHT22;10210;52.284;9.892;2022-12-13T08:54:28;-2.30;99.90
20102;DHT22;10210;52.284;9.892;2022-12-13T08:56:57;-2.30;99.90
20102;DHT22;10210;52.284;9.892;2022-12-13T08:59:23;-2.30;99.90
20102;DHT22;10210;52.284;9.892;2022-12-13T09:01:52;-2.30;99.90
20102;DHT22;10210;52.284;9.892;2022-12-13T09:04:18;-2.20;99.90
20102;DHT22;10210;52.284;9.892;2022-12-13T09:06:44;-2.20;99.90
20102;DHT22;10210;52.284;9.892;2022-12-13T09:09:10;-2.20;99.90
20102;DHT22;10210;52.284;9.892;2022-12-13T09:11:38;-2.20;99.90
20102;DHT22;10210;52.284;9.892;2022-12-13T09:14:14;-2.20;99.90
20102;DHT22;10210;52.284;9.892;2022-12-13T09:16:39;-2.10;99.90
20102;DHT22;10210;52.284;9.892;2022-12-13T09:19:05;-2.00;99.90
20102;DHT22;10210;52.284;9.892;2022-12-13T09:21:31;-1.90;99.90
20102;DHT22;10210;52.284;9.892;2022-12-13T09:23:57;-1.80;99.90
20102;DHT22;10210;52.284;9.892;2022-12-13T09:26:22;-1.60;99.90
20102;DHT22;10210;52.284;9.892;2022-12-13T09:28:51;-1.40;99.90
20102;DHT22;10210;52.284;9.892;2022-12-13T09:31:18;-1.20;99.90
20102;DHT22;10210;52.284;9.892;2022-12-13T09:33:44;-1.00;99.90
20102;DHT22;10210;52.284;9.892;2022-12-13T09:36:13;-0.80;99.90
20102;DHT22;10210;52.284;9.892;2022-12-13T09:38:41;-0.70;99.90
20102;DHT22;10210;52.284;9.892;2022-12-13T09:41:18;-0.50;99.90
20102;DHT22;10210;52.284;9.892;2022-12-13T09:43:52;-0.30;99.90
20102;DHT22;10210;52.284;9.892;2022-12-13T09:46:31;-0.10;99.90
20102;DHT22;10210;52.284;9.892;2022-12-13T09:49:45;0.00;99.90
20102;DHT22;10210;52.284;9.892;2022-12-13T09:52:15;0.10;99.90
20102;DHT22;10210;52.284;9.892;2022-12-13T09:54:43;0.30;99.90
20102;DHT22;10210;52.284;9.892;2022-12-13T09:57:24;0.50;99.90
20102;DHT22;10210;52.284;9.892;2022-12-13T09:59:51;0.50;99.90
20102;DHT22;10210;52.284;9.892;2022-12-13T10:02:24;0.60;99.90
20102;DHT22;10210;52.284;9.892;2022-12-13T10:05:07;0.70;99.90
20102;DHT22;10210;52.284;9.892;2022-12-13T10:07:40;0.70;99.90
20102;DHT22;10210;52.284;9.892;2022-12-13T10:10:08;0.70;99.90
20102;DHT22;10210;52.284;9.892;2022-12-13T10:12:38;0.70;99.90
20102;DHT22;10210;52.284;9.892;2022-12-13T10:15:07;0.60;99.90
20102;DHT22;10210;52.284;9.892;2022-12-13T10:17:38;0.60;99.90
20102;DHT22;10210;52.284;9.892;2022-12-13T10:20:06;0.60;99.90
20102;DHT22;10210;52.284;9.892;2022-12-13T10:22:32;0.60;99.90
20102;DHT22;10210;52.284;9.892;2022-12-13T10:25:00;0.50;99.90
20102;DHT22;10210;52.284;9.892;2022-12-13T10:27:44;0.50;99.90
20102;DHT22;10210;52.284;9.892;2022-12-13T10:30:21;0.40;99.90
20102;DHT22;10210;52.284;9.892;2022-12-13T10:32:53;0.30;99.90
20102;DHT22;10210;52.284;9.892;2022-12-13T10:38:00;0.30;99.90
20102;DHT22;10210;52.284;9.892;2022-12-13T10:40:36;0.30;99.90
20102;DHT22;10210;52.284;9.892;2022-12-13T10:43:13;0.20;99.90
20102;DHT22;10210;52.284;9.892;2022-12-13T10:45:43;0.20;99.90
20102;DHT22;10210;52.284;9.892;2022-12-13T10:48:33;0.20;99.90
20102;DHT22;10210;52.284;9.892;2022-12-13T10:51:08;0.20;99.90
20102;DHT22;10210;52.284;9.892;2022-12-13T10:56:10;0.10;99.90
20102;DHT22;10210;52.284;9.892;2022-12-13T10:58:41;0.20;99.90
20102;DHT22;10210;52.284;9.892;2022-12-13T11:03:42;0.10;99.90
20102;DHT22;10210;52.284;9.892;2022-12-13T11:06:25;0.10;99.90
20102;DHT22;10210;52.284;9.892;2022-12-13T11:08:52;0.10;99.90
20102;DHT22;10210;52.284;9.892;2022-12-13T11:11:29;0.10;99.90
20102;DHT22;10210;52.284;9.892;2022-12-13T11:13:57;0.10;99.90
20102;DHT22;10210;52.284;9.892;2022-12-13T11:16:38;0.10;99.90
20102;DHT22;10210;52.284;9.892;2022-12-13T11:19:19;0.20;99.90
20102;DHT22;10210;52.284;9.892;2022-12-13T11:21:49;0.20;99.90
20102;DHT22;10210;52.284;9.892;2022-12-13T11:24:23;0.20;99.90
20102;DHT22;10210;52.284;9.892;2022-12-13T11:27:13;0.20;99.90
20102;DHT22;10210;52.284;9.892;2022-12-13T11:30:07;0.20;99.90
20102;DHT22;10210;52.284;9.892;2022-12-13T11:35:35;0.30;99.90
20102;DHT22;10210;52.284;9.892;2022-12-13T11:38:59;0.30;99.90
20102;DHT22;10210;52.284;9.892;2022-12-13T11:42:24;0.40;99.90
20102;DHT22;10210;52.284;9.892;2022-12-13T11:47:54;0.50;99.90
20102;DHT22;10210;52.284;9.892;2022-12-13T11:50:58;0.50;99.90
20102;DHT22;10210;52.284;9.892;2022-12-13T11:56:42;0.60;99.90
20102;DHT22;10210;52.284;9.892;2022-12-13T12:02:28;0.70;99.90
20102;DHT22;10210;52.284;9.892;2022-12-13T12:05:04;0.70;99.90
20102;DHT22;10210;52.284;9.892;2022-12-13T12:12:41;0.80;99.90
20102;DHT22;10210;52.284;9.892;2022-12-13T12:15:22;0.90;99.90
20102;DHT22;10210;52.284;9.892;2022-12-13T12:17:53;0.90;99.90
20102;DHT22;10210;52.284;9.892;2022-12-13T12:20:43;1.00;99.90
20102;DHT22;10210;52.284;9.892;2022-12-13T12:23:38;1.00;99.90
20102;DHT22;10210;52.284;9.892;2022-12-13T12:26:07;1.00;99.90
20102;DHT22;10210;52.284;9.892;2022-12-13T12:31:52;1.20;99.90
20102;DHT22;10210;52.284;9.892;2022-12-13T12:34:47;1.20;99.90
20102;DHT22;10210;52.284;9.892;2022-12-13T12:43:32;1.30;99.90
20102;DHT22;10210;52.284;9.892;2022-12-13T12:52:25;1.50;99.90
20102;DHT22;10210;52.284;9.892;2022-12-13T12:58:17;1.60;99.90
20102;DHT22;10210;52.284;9.892;2022-12-13T13:04:17;1.70;99.90
20102;DHT22;10210;52.284;9.892;2022-12-13T13:06:58;1.70;99.90
20102;DHT22;10210;52.284;9.892;2022-12-13T13:09:38;1.80;99.90
20102;DHT22;10210;52.284;9.892;2022-12-13T13:12:05;1.80;99.90
20102;DHT22;10210;52.284;9.892;2022-12-13T13:14:38;1.90;99.90
20102;DHT22;10210;52.284;9.892;2022-12-13T13:20:20;2.00;99.90
20102;DHT22;10210;52.284;9.892;2022-12-13T13:22:48;2.00;99.90
20102;DHT22;10210;52.284;9.892;2022-12-13T13:25:32;2.00;99.90
20102;DHT22;10210;52.284;9.892;2022-12-13T13:28:02;2.00;99.90
20102;DHT22;10210;52.284;9.892;2022-12-13T13:30:34;2.00;99.90
20102;DHT22;10210;52.284;9.892;2022-12-13T13:33:00;2.00;99.90
20102;DHT22;10210;52.284;9.892;2022-12-13T13:37:56;2.10;99.90
20102;DHT22;10210;52.284;9.892;2022-12-13T13:40:36;2.10;99.90
20102;DHT22;10210;52.284;9.892;2022-12-13T13:45:55;2.20;99.90
20102;DHT22;10210;52.284;9.892;2022-12-13T13:58:26;2.20;99.90
20102;DHT22;10210;52.284;9.892;2022-12-13T14:25:46;2.40;99.90
20102;DHT22;10210;52.284;9.892;2022-12-13T14:28:50;2.30;99.90
20102;DHT22;10210;52.284;9.892;2022-12-13T14:31:35;2.30;99.90
20102;DHT22;10210;52.284;9.892;2022-12-13T14:34:05;2.30;99.90
20102;DHT22;10210;52.284;9.892;2022-12-13T14:36:34;2.30;99.90
20102;DHT22;10210;52.284;9.892;2022-12-13T14:39:14;2.30;99.90
20102;DHT22;10210;52.284;9.892;2022-12-13T14:41:45;2.30;99.90
20102;DHT22;10210;52.284;9.892;2022-12-13T14:46:51;2.20;99.90
20102;DHT22;10210;52.284;9.892;2022-12-13T14:49:20;2.20;99.90
20102;DHT22;10210;52.284;9.892;2022-12-13T14:51:49;2.20;99.90
20102;DHT22;10210;52.284;9.892;2022-12-13T14:54:24;2.10;99.90
20102;DHT22;10210;52.284;9.892;2022-12-13T14:56:56;2.10;99.90
20102;DHT22;10210;52.284;9.892;2022-12-13T14:59:24;2.00;99.90
20102;DHT22;10210;52.284;9.892;2022-12-13T15:01:58;2.00;99.90
20102;DHT22;10210;52.284;9.892;2022-12-13T15:04:32;2.00;99.90
20102;DHT22;10210;52.284;9.892;2022-12-13T15:07:07;1.90;99.90
20102;DHT22;10210;52.284;9.892;2022-12-13T15:09:41;1.90;99.90
20102;DHT22;10210;52.284;9.892;2022-12-13T15:12:12;1.80;99.90
20102;DHT22;10210;52.284;9.892;2022-12-13T15:14:45;1.80;99.90
20102;DHT22;10210;52.284;9.892;2022-12-13T15:17:36;1.80;99.90
20102;DHT22;10210;52.284;9.892;2022-12-13T15:20:26;1.70;99.90
20102;DHT22;10210;52.284;9.892;2022-12-13T15:26:02;1.60;99.90
20102;DHT22;10210;52.284;9.892;2022-12-13T15:28:36;1.60;99.90
20102;DHT22;10210;52.284;9.892;2022-12-13T15:31:06;1.50;99.90
20102;DHT22;10210;52.284;9.892;2022-12-13T15:33:34;1.50;99.90
20102;DHT22;10210;52.284;9.892;2022-12-13T15:36:38;1.50;99.90
20102;DHT22;10210;52.284;9.892;2022-12-13T15:39:04;1.40;99.90
20102;DHT22;10210;52.284;9.892;2022-12-13T15:41:35;1.40;99.90
20102;DHT22;10210;52.284;9.892;2022-12-13T15:44:25;1.40;99.90
20102;DHT22;10210;52.284;9.892;2022-12-13T15:47:10;1.30;99.90
20102;DHT22;10210;52.284;9.892;2022-12-13T15:49:43;1.30;99.90
20102;DHT22;10210;52.284;9.892;2022-12-13T15:54:53;1.20;99.90
20102;DHT22;10210;52.284;9.892;2022-12-13T15:57:25;1.20;99.90
20102;DHT22;10210;52.284;9.892;2022-12-13T16:00:04;1.10;99.90
20102;DHT22;10210;52.284;9.892;2022-12-13T16:03:15;1.10;99.90
20102;DHT22;10210;52.284;9.892;2022-12-13T16:05:50;1.10;99.90
20102;DHT22;10210;52.284;9.892;2022-12-13T16:11:01;1.00;99.90
20102;DHT22;10210;52.284;9.892;2022-12-13T16:13:32;1.00;99.90
20102;DHT22;10210;52.284;9.892;2022-12-13T16:16:27;1.00;99.90
20102;DHT22;10210;52.284;9.892;2022-12-13T16:18:57;0.90;99.90
20102;DHT22;10210;52.284;9.892;2022-12-13T16:21:25;0.90;99.90
20102;DHT22;10210;52.284;9.892;2022-12-13T16:23:52;0.90;99.90
20102;DHT22;10210;52.284;9.892;2022-12-13T16:26:24;0.90;99.90
20102;DHT22;10210;52.284;9.892;2022-12-13T16:28:52;0.80;99.90
20102;DHT22;10210;52.284;9.892;2022-12-13T16:31:21;0.80;99.90
20102;DHT22;10210;52.284;9.892;2022-12-13T16:33:49;0.80;99.90
20102;DHT22;10210;52.284;9.892;2022-12-13T16:36:15;0.70;99.90
20102;DHT22;10210;52.284;9.892;2022-12-13T16:38:42;0.70;99.90
20102;DHT22;10210;52.284;9.892;2022-12-13T16:41:08;0.60;99.90
20102;DHT22;10210;52.284;9.892;2022-12-13T16:43:43;0.60;99.90
20102;DHT22;10210;52.284;9.892;2022-12-13T16:46:15;0.50;99.90
20102;DHT22;10210;52.284;9.892;2022-12-13T16:48:41;0.50;99.90
20102;DHT22;10210;52.284;9.892;2022-12-13T16:51:07;0.50;99.90
20102;DHT22;10210;52.284;9.892;2022-12-13T16:53:33;0.40;99.90
20102;DHT22;10210;52.284;9.892;2022-12-13T16:56:05;0.40;99.90
20102;DHT22;10210;52.284;9.892;2022-12-13T16:58:48;0.30;99.90
20102;DHT22;10210;52.284;9.892;2022-12-13T17:01:17;0.30;99.90
20102;DHT22;10210;52.284;9.892;2022-12-13T17:03:44;0.30;99.90
20102;DHT22;10210;52.284;9.892;2022-12-13T17:06:11;0.30;99.90
20102;DHT22;10210;52.284;9.892;2022-12-13T17:08:38;0.30;99.90
20102;DHT22;10210;52.284;9.892;2022-12-13T17:11:05;0.20;99.90
20102;DHT22;10210;52.284;9.892;2022-12-13T17:13:31;0.20;99.90
20102;DHT22;10210;52.284;9.892;2022-12-13T17:15:56;0.20;99.90
20102;DHT22;10210;52.284;9.892;2022-12-13T17:18:22;0.10;99.90
20102;DHT22;10210;52.284;9.892;2022-12-13T17:20:48;0.10;99.90
20102;DHT22;10210;52.284;9.892;2022-12-13T17:23:16;0.10;99.90
20102;DHT22;10210;52.284;9.892;2022-12-13T17:25:42;0.00;99.90
20102;DHT22;10210;52.284;9.892;2022-12-13T17:28:08;0.00;99.90
20102;DHT22;10210;52.284;9.892;2022-12-13T17:30:34;0.00;99.90
20102;DHT22;10210;52.284;9.892;2022-12-13T17:33:03;0.00;99.90
20102;DHT22;10210;52.284;9.892;2022-12-13T17:35:33;0.00;99.90
20102;DHT22;10210;52.284;9.892;2022-12-13T17:37:59;0.00;99.90
20102;DHT22;10210;52.284;9.892;2022-12-13T17:40:27;0.00;99.90
20102;DHT22;10210;52.284;9.892;2022-12-13T17:42:53;-0.10;99.90
20102;DHT22;10210;52.284;9.892;2022-12-13T17:45:19;-0.10;99.90
20102;DHT22;10210;52.284;9.892;2022-12-13T17:47:45;-0.10;99.90
20102;DHT22;10210;52.284;9.892;2022-12-13T17:50:11;-0.20;99.90
20102;DHT22;10210;52.284;9.892;2022-12-13T17:52:38;-0.10;99.90
20102;DHT22;10210;52.284;9.892;2022-12-13T17:55:05;-0.20;99.90
20102;DHT22;10210;52.284;9.892;2022-12-13T17:57:31;-0.20;99.90
20102;DHT22;10210;52.284;9.892;2022-12-13T17:59:57;-0.20;99.90
20102;DHT22;10210;52.284;9.892;2022-12-13T18:02:24;-0.20;99.90